PWSweather.com
Personal Weather Stations
Station Observations
KMICHEBO10
Cordwood Point, Lake Huron, Cheboygan, MI 49721

Cordwood Point, Lake HuronCheboygan, MI 49721

Lat: 45.663372, Lon: -84.3327789

Elevation: 584

Station Type: Davis Vantage Pro2 Wireless

https://www.lakehuronweather.org

High Low Average
Temperature 31.9°F-0.1°C 27.4°F-2.6°C 29.5°F-1.4°C
Dew Point 28.7°F-1.8°C 22.2°F-5.4°C 26.5°F-3.1°C
Winds 5.8 mph 9.3 kmh Calm Calm 2.0 mph WSW3.2 kmh WSW
Wind Gusts 13.8 mph22.2 kmh -- 4.0 mph6.4 kmh
Humidity 95% 80% 88%
Pressure 29.98 in1015.2 mb 29.68 in1005.1 mb -
Precipitation 0.00 in0.0 mm - -
Hour Temp Dew Point Humidity Winds Wind Gusts Pressure Precip Precip Rate Daily Precip Total
12:00 AM 29.0°F-1.7°C 25.9°F-3.4°C 88% 1.2 mph WSW1.9 kmh WSW 2.3 mph3.7 kmh 29.76 in1007.8 mb - 0.00 in0.0 mm 0.00 in0.0 mm
12:10 AM 29.0°F-1.7°C 25.9°F-3.4°C 88% 1.2 mph WSW1.9 kmh WSW 4.6 mph7.4 kmh 29.76 in1007.8 mb - 0.00 in0.0 mm 0.00 in0.0 mm
12:20 AM 29.1°F-1.6°C 26.0°F-3.3°C 88% Calm Calm 3.5 mph5.6 kmh 29.75 in1007.5 mb - 0.00 in0.0 mm 0.00 in0.0 mm
12:30 AM 29.2°F-1.6°C 26.1°F-3.3°C 88% 1.2 mph SW1.9 kmh SW 2.3 mph3.7 kmh 29.75 in1007.5 mb - 0.00 in0.0 mm 0.00 in0.0 mm
12:40 AM 29.2°F-1.6°C 26.1°F-3.3°C 88% 1.2 mph SW1.9 kmh SW 9.2 mph14.8 kmh 29.75 in1007.5 mb - 0.00 in0.0 mm 0.00 in0.0 mm
12:50 AM 29.3°F-1.5°C 26.5°F-3.1°C 89% 2.3 mph SW3.7 kmh SW 3.5 mph5.6 kmh 29.75 in1007.5 mb - 0.00 in0.0 mm 0.00 in0.0 mm
01:00 AM 29.4°F-1.4°C 26.3°F-3.2°C 88% 2.3 mph S3.7 kmh S 4.6 mph7.4 kmh 29.74 in1007.1 mb - 0.00 in0.0 mm 0.00 in0.0 mm
01:10 AM 29.4°F-1.4°C 26.6°F-3.0°C 89% 1.2 mph SSW1.9 kmh SSW 1.2 mph1.9 kmh 29.74 in1007.1 mb - 0.00 in0.0 mm 0.00 in0.0 mm
01:20 AM 29.4°F-1.4°C 26.6°F-3.0°C 89% 1.2 mph WSW1.9 kmh WSW 3.5 mph5.6 kmh 29.74 in1007.1 mb - 0.00 in0.0 mm 0.00 in0.0 mm
01:30 AM 29.5°F-1.4°C 26.7°F-2.9°C 89% Calm Calm 2.3 mph3.7 kmh 29.74 in1007.1 mb - 0.00 in0.0 mm 0.00 in0.0 mm
01:40 AM 29.6°F-1.3°C 26.8°F-2.9°C 89% 1.2 mph SW1.9 kmh SW 5.8 mph9.3 kmh 29.73 in1006.8 mb - 0.00 in0.0 mm 0.00 in0.0 mm
01:50 AM 29.8°F-1.2°C 27.0°F-2.8°C 89% 3.5 mph SW5.6 kmh SW 6.9 mph11.1 kmh 29.73 in1006.8 mb - 0.00 in0.0 mm 0.00 in0.0 mm
02:00 AM 29.9°F-1.2°C 27.3°F-2.6°C 90% 2.3 mph SW3.7 kmh SW 4.6 mph7.4 kmh 29.72 in1006.4 mb - 0.00 in0.0 mm 0.00 in0.0 mm
02:10 AM 29.9°F-1.2°C 27.4°F-2.6°C 90% 3.5 mph SSW5.6 kmh SSW 3.5 mph5.6 kmh 29.72 in1006.4 mb - 0.00 in0.0 mm 0.00 in0.0 mm
02:20 AM 29.9°F-1.2°C 27.6°F-2.4°C 91% 1.2 mph SSW1.9 kmh SSW 3.5 mph5.6 kmh 29.71 in1006.1 mb - 0.00 in0.0 mm 0.00 in0.0 mm
02:30 AM 29.9°F-1.2°C 27.6°F-2.4°C 91% 2.3 mph SW3.7 kmh SW 3.5 mph5.6 kmh 29.71 in1006.1 mb - 0.00 in0.0 mm 0.00 in0.0 mm
02:40 AM 29.8°F-1.2°C 27.8°F-2.3°C 92% Calm Calm 2.3 mph3.7 kmh 29.71 in1006.1 mb - 0.00 in0.0 mm 0.00 in0.0 mm
02:50 AM 29.9°F-1.2°C 27.9°F-2.3°C 92% 1.2 mph SSW1.9 kmh SSW 4.6 mph7.4 kmh 29.70 in1005.8 mb - 0.00 in0.0 mm 0.00 in0.0 mm
03:00 AM 29.9°F-1.2°C 27.9°F-2.3°C 92% 1.2 mph SW1.9 kmh SW 2.3 mph3.7 kmh 29.70 in1005.8 mb - 0.00 in0.0 mm 0.00 in0.0 mm
03:10 AM 29.8°F-1.2°C 28.1°F-2.2°C 93% 1.2 mph SW1.9 kmh SW 2.3 mph3.7 kmh 29.70 in1005.8 mb - 0.00 in0.0 mm 0.00 in0.0 mm
03:20 AM 29.8°F-1.2°C 28.0°F-2.2°C 93% 1.2 mph SW1.9 kmh SW 2.3 mph3.7 kmh 29.70 in1005.8 mb - 0.00 in0.0 mm 0.00 in0.0 mm
03:30 AM 29.8°F-1.2°C 28.3°F-2.1°C 94% Calm Calm 2.3 mph3.7 kmh 29.70 in1005.8 mb - 0.00 in0.0 mm 0.00 in0.0 mm
03:40 AM 29.9°F-1.2°C 28.4°F-2.0°C 94% 1.2 mph WSW1.9 kmh WSW 2.3 mph3.7 kmh 29.70 in1005.8 mb - 0.00 in0.0 mm 0.00 in0.0 mm
03:50 AM 29.9°F-1.2°C 28.4°F-2.0°C 94% Calm Calm 1.2 mph1.9 kmh 29.70 in1005.8 mb - 0.00 in0.0 mm 0.00 in0.0 mm
04:00 AM 29.9°F-1.2°C 28.4°F-2.0°C 94% 1.2 mph SSW1.9 kmh SSW 2.3 mph3.7 kmh 29.70 in1005.8 mb - 0.00 in0.0 mm 0.00 in0.0 mm
04:10 AM 29.9°F-1.2°C 28.4°F-2.0°C 94% Calm Calm 1.2 mph1.9 kmh 29.70 in1005.8 mb - 0.00 in0.0 mm 0.00 in0.0 mm
04:20 AM 29.9°F-1.2°C 28.4°F-2.0°C 94% Calm Calm 2.3 mph3.7 kmh 29.69 in1005.4 mb - 0.00 in0.0 mm 0.00 in0.0 mm
04:30 AM 29.9°F-1.2°C 28.4°F-2.0°C 94% 1.2 mph SW1.9 kmh SW 2.3 mph3.7 kmh 29.69 in1005.4 mb - 0.00 in0.0 mm 0.00 in0.0 mm
04:40 AM 29.9°F-1.2°C 28.6°F-1.9°C 95% Calm Calm 1.2 mph1.9 kmh 29.69 in1005.4 mb - 0.00 in0.0 mm 0.00 in0.0 mm
04:50 AM 29.9°F-1.2°C 28.6°F-1.9°C 95% Calm Calm -- 29.68 in1005.1 mb - 0.00 in0.0 mm 0.00 in0.0 mm
05:00 AM 29.9°F-1.2°C 28.6°F-1.9°C 95% 1.2 mph N1.9 kmh N 1.2 mph1.9 kmh 29.69 in1005.4 mb - 0.00 in0.0 mm 0.00 in0.0 mm
05:10 AM 30.0°F-1.1°C 28.7°F-1.8°C 95% Calm Calm 1.2 mph1.9 kmh 29.68 in1005.1 mb - 0.00 in0.0 mm 0.00 in0.0 mm
05:20 AM 29.8°F-1.2°C 28.5°F-1.9°C 95% Calm Calm 1.2 mph1.9 kmh 29.68 in1005.1 mb - 0.00 in0.0 mm 0.00 in0.0 mm
05:30 AM 29.7°F-1.3°C 28.4°F-2.0°C 95% 1.2 mph SW1.9 kmh SW 6.9 mph11.1 kmh 29.68 in1005.1 mb - 0.00 in0.0 mm 0.00 in0.0 mm
05:40 AM 29.5°F-1.4°C 28.0°F-2.2°C 94% 1.2 mph SW1.9 kmh SW 3.5 mph5.6 kmh 29.68 in1005.1 mb - 0.00 in0.0 mm 0.00 in0.0 mm
05:50 AM 29.4°F-1.4°C 27.9°F-2.3°C 94% Calm Calm -- 29.68 in1005.1 mb - 0.00 in0.0 mm 0.00 in0.0 mm
06:00 AM 29.3°F-1.5°C 27.8°F-2.3°C 94% Calm Calm 2.3 mph3.7 kmh 29.68 in1005.1 mb - 0.00 in0.0 mm 0.00 in0.0 mm
06:10 AM 29.1°F-1.6°C 27.6°F-2.4°C 94% Calm Calm 1.2 mph1.9 kmh 29.68 in1005.1 mb - 0.00 in0.0 mm 0.00 in0.0 mm
06:20 AM 28.8°F-1.8°C 27.3°F-2.6°C 94% Calm Calm 3.5 mph5.6 kmh 29.68 in1005.1 mb - 0.00 in0.0 mm 0.00 in0.0 mm
06:30 AM 28.6°F-1.9°C 27.1°F-2.7°C 94% Calm Calm 1.2 mph1.9 kmh 29.68 in1005.1 mb - 0.00 in0.0 mm 0.00 in0.0 mm
06:40 AM 28.5°F-1.9°C 27.0°F-2.8°C 94% Calm Calm 2.3 mph3.7 kmh 29.68 in1005.1 mb - 0.00 in0.0 mm 0.00 in0.0 mm
06:50 AM 28.4°F-2.0°C 26.9°F-2.8°C 94% Calm Calm 2.3 mph3.7 kmh 29.68 in1005.1 mb - 0.00 in0.0 mm 0.00 in0.0 mm
07:00 AM 28.4°F-2.0°C 26.9°F-2.8°C 94% 1.2 mph SW1.9 kmh SW 2.3 mph3.7 kmh 29.68 in1005.1 mb - 0.00 in0.0 mm 0.00 in0.0 mm
07:10 AM 28.3°F-2.1°C 26.8°F-2.9°C 94% Calm Calm 1.2 mph1.9 kmh 29.69 in1005.4 mb - 0.00 in0.0 mm 0.00 in0.0 mm
07:20 AM 28.2°F-2.1°C 26.4°F-3.1°C 93% 1.2 mph WNW1.9 kmh WNW 2.3 mph3.7 kmh 29.69 in1005.4 mb - 0.00 in0.0 mm 0.00 in0.0 mm
07:30 AM 28.2°F-2.1°C 26.4°F-3.1°C 93% 1.2 mph S1.9 kmh S 3.5 mph5.6 kmh 29.69 in1005.4 mb - 0.00 in0.0 mm 0.00 in0.0 mm
07:40 AM 28.2°F-2.1°C 26.4°F-3.1°C 93% 1.2 mph SW1.9 kmh SW 3.5 mph5.6 kmh 29.70 in1005.8 mb - 0.00 in0.0 mm 0.00 in0.0 mm
07:50 AM 28.2°F-2.1°C 26.5°F-3.1°C 93% 1.2 mph SW1.9 kmh SW 5.8 mph9.3 kmh 29.70 in1005.8 mb - 0.00 in0.0 mm 0.00 in0.0 mm
08:00 AM 28.3°F-2.1°C 26.5°F-3.1°C 93% 1.2 mph WSW1.9 kmh WSW 4.6 mph7.4 kmh 29.70 in1005.8 mb - 0.00 in0.0 mm 0.00 in0.0 mm
08:10 AM 28.2°F-2.1°C 26.5°F-3.1°C 93% 1.2 mph NE1.9 kmh NE 2.3 mph3.7 kmh 29.70 in1005.8 mb - 0.00 in0.0 mm 0.00 in0.0 mm
08:20 AM 28.2°F-2.1°C 26.4°F-3.1°C 93% 1.2 mph SW1.9 kmh SW 3.5 mph5.6 kmh 29.70 in1005.8 mb - 0.00 in0.0 mm 0.00 in0.0 mm
08:30 AM 28.2°F-2.1°C 26.4°F-3.1°C 93% 1.2 mph SW1.9 kmh SW 2.3 mph3.7 kmh 29.71 in1006.1 mb - 0.00 in0.0 mm 0.00 in0.0 mm
08:40 AM 28.2°F-2.1°C 26.2°F-3.2°C 92% 1.2 mph WSW1.9 kmh WSW 2.3 mph3.7 kmh 29.71 in1006.1 mb - 0.00 in0.0 mm 0.00 in0.0 mm
08:50 AM 28.3°F-2.1°C 26.3°F-3.2°C 92% 2.3 mph WSW3.7 kmh WSW 6.9 mph11.1 kmh 29.71 in1006.1 mb - 0.00 in0.0 mm 0.00 in0.0 mm
09:00 AM 28.2°F-2.1°C 26.2°F-3.2°C 92% 1.2 mph SW1.9 kmh SW 3.5 mph5.6 kmh 29.71 in1006.1 mb - 0.00 in0.0 mm 0.00 in0.0 mm
09:10 AM 28.1°F-2.2°C 26.1°F-3.3°C 92% 2.3 mph SW3.7 kmh SW 5.8 mph9.3 kmh 29.71 in1006.1 mb - 0.00 in0.0 mm 0.00 in0.0 mm
09:20 AM 28.1°F-2.2°C 26.1°F-3.3°C 92% 2.3 mph W3.7 kmh W 1.2 mph1.9 kmh 29.71 in1006.1 mb - 0.00 in0.0 mm 0.00 in0.0 mm
09:30 AM 28.1°F-2.2°C 26.1°F-3.3°C 92% Calm Calm 1.2 mph1.9 kmh 29.71 in1006.1 mb - 0.00 in0.0 mm 0.00 in0.0 mm
09:40 AM 28.2°F-2.1°C 26.4°F-3.1°C 93% 1.2 mph WSW1.9 kmh WSW 2.3 mph3.7 kmh 29.71 in1006.1 mb - 0.00 in0.0 mm 0.00 in0.0 mm
09:50 AM 28.3°F-2.1°C 26.3°F-3.2°C 92% 1.2 mph W1.9 kmh W 3.5 mph5.6 kmh 29.71 in1006.1 mb - 0.00 in0.0 mm 0.00 in0.0 mm
10:00 AM 28.4°F-2.0°C 26.4°F-3.1°C 92% 1.2 mph SSW1.9 kmh SSW 2.3 mph3.7 kmh 29.71 in1006.1 mb - 0.00 in0.0 mm 0.00 in0.0 mm
10:10 AM 28.4°F-2.0°C 26.4°F-3.1°C 92% Calm Calm 1.2 mph1.9 kmh 29.71 in1006.1 mb - 0.00 in0.0 mm 0.00 in0.0 mm
10:20 AM 28.4°F-2.0°C 26.1°F-3.3°C 91% 1.2 mph WSW1.9 kmh WSW 2.3 mph3.7 kmh 29.71 in1006.1 mb - 0.00 in0.0 mm 0.00 in0.0 mm
10:30 AM 28.4°F-2.0°C 26.1°F-3.3°C 91% 1.2 mph S1.9 kmh S 2.3 mph3.7 kmh 29.71 in1006.1 mb - 0.00 in0.0 mm 0.00 in0.0 mm
10:40 AM 28.4°F-2.0°C 26.1°F-3.3°C 91% 3.5 mph SW5.6 kmh SW 4.6 mph7.4 kmh 29.71 in1006.1 mb - 0.00 in0.0 mm 0.00 in0.0 mm
10:50 AM 28.4°F-2.0°C 26.1°F-3.3°C 91% 1.2 mph SW1.9 kmh SW 3.5 mph5.6 kmh 29.71 in1006.1 mb - 0.00 in0.0 mm 0.00 in0.0 mm
11:00 AM 28.4°F-2.0°C 25.9°F-3.4°C 90% 1.2 mph W1.9 kmh W 1.2 mph1.9 kmh 29.72 in1006.4 mb - 0.00 in0.0 mm 0.00 in0.0 mm
11:10 AM 28.5°F-1.9°C 25.9°F-3.4°C 90% 1.2 mph WSW1.9 kmh WSW 4.6 mph7.4 kmh 29.72 in1006.4 mb - 0.00 in0.0 mm 0.00 in0.0 mm
11:20 AM 28.5°F-1.9°C 25.9°F-3.4°C 90% 1.2 mph SW1.9 kmh SW 3.5 mph5.6 kmh 29.72 in1006.4 mb - 0.00 in0.0 mm 0.00 in0.0 mm
11:30 AM 28.4°F-2.0°C 25.8°F-3.4°C 90% 1.2 mph WSW1.9 kmh WSW 2.3 mph3.7 kmh 29.72 in1006.4 mb - 0.00 in0.0 mm 0.00 in0.0 mm
11:40 AM 28.4°F-2.0°C 25.8°F-3.4°C 90% 1.2 mph SW1.9 kmh SW 6.9 mph11.1 kmh 29.73 in1006.8 mb - 0.00 in0.0 mm 0.00 in0.0 mm
11:50 AM 28.4°F-2.0°C 25.9°F-3.4°C 90% 1.2 mph SSW1.9 kmh SSW 3.5 mph5.6 kmh 29.73 in1006.8 mb - 0.00 in0.0 mm 0.00 in0.0 mm
12:00 PM 28.5°F-1.9°C 25.7°F-3.5°C 89% 1.2 mph SSE1.9 kmh SSE 2.3 mph3.7 kmh 29.73 in1006.8 mb - 0.00 in0.0 mm 0.00 in0.0 mm
12:10 PM 28.5°F-1.9°C 25.9°F-3.4°C 90% 1.2 mph SW1.9 kmh SW 2.3 mph3.7 kmh 29.73 in1006.8 mb - 0.00 in0.0 mm 0.00 in0.0 mm
12:20 PM 28.5°F-1.9°C 25.9°F-3.4°C 90% 3.5 mph S5.6 kmh S 3.5 mph5.6 kmh 29.73 in1006.8 mb - 0.00 in0.0 mm 0.00 in0.0 mm
12:30 PM 28.6°F-1.9°C 25.8°F-3.4°C 89% 1.2 mph SSW1.9 kmh SSW 5.8 mph9.3 kmh 29.72 in1006.4 mb - 0.00 in0.0 mm 0.00 in0.0 mm
12:40 PM 28.7°F-1.8°C 25.6°F-3.6°C 88% 2.3 mph SW3.7 kmh SW 4.6 mph7.4 kmh 29.72 in1006.4 mb - 0.00 in0.0 mm 0.00 in0.0 mm
12:50 PM 28.9°F-1.7°C 25.8°F-3.4°C 88% 2.3 mph S3.7 kmh S 3.5 mph5.6 kmh 29.71 in1006.1 mb - 0.00 in0.0 mm 0.00 in0.0 mm
01:00 PM 29.1°F-1.6°C 26.0°F-3.3°C 88% 3.5 mph SW5.6 kmh SW 2.3 mph3.7 kmh 29.71 in1006.1 mb - 0.00 in0.0 mm 0.00 in0.0 mm
01:10 PM 29.3°F-1.5°C 26.2°F-3.2°C 88% 1.2 mph SW1.9 kmh SW 3.5 mph5.6 kmh 29.71 in1006.1 mb - 0.00 in0.0 mm 0.00 in0.0 mm
01:20 PM 29.4°F-1.4°C 26.0°F-3.3°C 87% 2.3 mph S3.7 kmh S 3.5 mph5.6 kmh 29.71 in1006.1 mb - 0.00 in0.0 mm 0.00 in0.0 mm
01:30 PM 29.5°F-1.4°C 26.1°F-3.3°C 87% 3.5 mph SSW5.6 kmh SSW 5.8 mph9.3 kmh 29.72 in1006.4 mb - 0.00 in0.0 mm 0.00 in0.0 mm
01:40 PM 29.6°F-1.3°C 26.2°F-3.2°C 87% 2.3 mph WSW3.7 kmh WSW 9.2 mph14.8 kmh 29.71 in1006.1 mb - 0.00 in0.0 mm 0.00 in0.0 mm
01:50 PM 29.8°F-1.2°C 26.1°F-3.3°C 86% 3.5 mph S5.6 kmh S 6.9 mph11.1 kmh 29.71 in1006.1 mb - 0.00 in0.0 mm 0.00 in0.0 mm
02:00 PM 29.9°F-1.2°C 26.5°F-3.1°C 87% 1.2 mph SW1.9 kmh SW 3.5 mph5.6 kmh 29.71 in1006.1 mb - 0.00 in0.0 mm 0.00 in0.0 mm
02:10 PM 30.0°F-1.1°C 26.6°F-3.0°C 87% 2.3 mph SW3.7 kmh SW 6.9 mph11.1 kmh 29.71 in1006.1 mb - 0.00 in0.0 mm 0.00 in0.0 mm
02:20 PM 29.9°F-1.2°C 26.2°F-3.2°C 86% 1.2 mph SW1.9 kmh SW 6.9 mph11.1 kmh 29.71 in1006.1 mb - 0.00 in0.0 mm 0.00 in0.0 mm
02:30 PM 29.8°F-1.2°C 26.4°F-3.1°C 87% 2.3 mph SW3.7 kmh SW 2.3 mph3.7 kmh 29.71 in1006.1 mb - 0.00 in0.0 mm 0.00 in0.0 mm
02:40 PM 29.7°F-1.3°C 26.3°F-3.2°C 87% 2.3 mph SW3.7 kmh SW 6.9 mph11.1 kmh 29.71 in1006.1 mb - 0.00 in0.0 mm 0.00 in0.0 mm
02:50 PM 29.6°F-1.3°C 26.2°F-3.2°C 87% 2.3 mph WSW3.7 kmh WSW 3.5 mph5.6 kmh 29.71 in1006.1 mb - 0.00 in0.0 mm 0.00 in0.0 mm
03:00 PM 29.6°F-1.3°C 26.2°F-3.2°C 87% 3.5 mph SW5.6 kmh SW 5.8 mph9.3 kmh 29.70 in1005.8 mb - 0.00 in0.0 mm 0.00 in0.0 mm
03:10 PM 29.8°F-1.2°C 26.4°F-3.1°C 87% 5.8 mph SW9.3 kmh SW 11.5 mph18.5 kmh 29.70 in1005.8 mb - 0.00 in0.0 mm 0.00 in0.0 mm
03:20 PM 30.2°F-1.0°C 26.8°F-2.9°C 87% 2.3 mph SSW3.7 kmh SSW 2.3 mph3.7 kmh 29.70 in1005.8 mb - 0.00 in0.0 mm 0.00 in0.0 mm
03:30 PM 30.3°F-0.9°C 26.6°F-3.0°C 86% 2.3 mph SSW3.7 kmh SSW 4.6 mph7.4 kmh 29.70 in1005.8 mb - 0.00 in0.0 mm 0.00 in0.0 mm
03:40 PM 30.4°F-0.9°C 26.4°F-3.1°C 85% 1.2 mph SSW1.9 kmh SSW 3.5 mph5.6 kmh 29.71 in1006.1 mb - 0.00 in0.0 mm 0.00 in0.0 mm
03:50 PM 30.5°F-0.8°C 26.5°F-3.1°C 85% 4.6 mph SW7.4 kmh SW 8.1 mph13.0 kmh 29.71 in1006.1 mb - 0.00 in0.0 mm 0.00 in0.0 mm
04:00 PM 30.6°F-0.8°C 26.6°F-3.0°C 85% 4.6 mph WSW7.4 kmh WSW 8.1 mph13.0 kmh 29.71 in1006.1 mb - 0.00 in0.0 mm 0.00 in0.0 mm
04:10 PM 30.7°F-0.7°C 26.7°F-2.9°C 85% 2.3 mph SW3.7 kmh SW 3.5 mph5.6 kmh 29.72 in1006.4 mb - 0.00 in0.0 mm 0.00 in0.0 mm
04:20 PM 30.8°F-0.7°C 26.8°F-2.9°C 85% 4.6 mph WSW7.4 kmh WSW 10.4 mph16.7 kmh 29.72 in1006.4 mb - 0.00 in0.0 mm 0.00 in0.0 mm
04:30 PM 31.0°F-0.6°C 27.0°F-2.8°C 85% 2.3 mph WSW3.7 kmh WSW 6.9 mph11.1 kmh 29.73 in1006.8 mb - 0.00 in0.0 mm 0.00 in0.0 mm
04:40 PM 31.2°F-0.4°C 27.2°F-2.7°C 85% 2.3 mph SSE3.7 kmh SSE 2.3 mph3.7 kmh 29.73 in1006.8 mb - 0.00 in0.0 mm 0.00 in0.0 mm
04:50 PM 31.2°F-0.4°C 27.2°F-2.7°C 85% 2.3 mph SW3.7 kmh SW 2.3 mph3.7 kmh 29.74 in1007.1 mb - 0.00 in0.0 mm 0.00 in0.0 mm
05:00 PM 31.4°F-0.3°C 27.4°F-2.6°C 85% 1.2 mph WSW1.9 kmh WSW 2.3 mph3.7 kmh 29.74 in1007.1 mb - 0.00 in0.0 mm 0.00 in0.0 mm
05:10 PM 31.5°F-0.3°C 27.5°F-2.5°C 85% 2.3 mph SSW3.7 kmh SSW 3.5 mph5.6 kmh 29.75 in1007.5 mb - 0.00 in0.0 mm 0.00 in0.0 mm
05:20 PM 31.6°F-0.2°C 27.9°F-2.3°C 86% 2.3 mph WSW3.7 kmh WSW 8.1 mph13.0 kmh 29.75 in1007.5 mb - 0.00 in0.0 mm 0.00 in0.0 mm
05:30 PM 31.6°F-0.2°C 27.6°F-2.4°C 85% 2.3 mph NW3.7 kmh NW 5.8 mph9.3 kmh 29.76 in1007.8 mb - 0.00 in0.0 mm 0.00 in0.0 mm
05:40 PM 31.7°F-0.2°C 27.4°F-2.6°C 84% 3.5 mph S5.6 kmh S 10.4 mph16.7 kmh 29.76 in1007.8 mb - 0.00 in0.0 mm 0.00 in0.0 mm
05:50 PM 31.7°F-0.2°C 27.7°F-2.4°C 85% 1.2 mph SE1.9 kmh SE 1.2 mph1.9 kmh 29.77 in1008.1 mb - 0.00 in0.0 mm 0.00 in0.0 mm
06:00 PM 31.6°F-0.2°C 27.0°F-2.8°C 83% 4.6 mph SW7.4 kmh SW 5.8 mph9.3 kmh 29.77 in1008.1 mb - 0.00 in0.0 mm 0.00 in0.0 mm
06:10 PM 31.6°F-0.2°C 27.0°F-2.8°C 83% 2.3 mph SW3.7 kmh SW 4.6 mph7.4 kmh 29.77 in1008.1 mb - 0.00 in0.0 mm 0.00 in0.0 mm
06:20 PM 31.5°F-0.3°C 27.2°F-2.7°C 84% 2.3 mph WSW3.7 kmh WSW 5.8 mph9.3 kmh 29.78 in1008.5 mb - 0.00 in0.0 mm 0.00 in0.0 mm
06:30 PM 31.4°F-0.3°C 27.2°F-2.7°C 84% 2.3 mph SW3.7 kmh SW 5.8 mph9.3 kmh 29.79 in1008.8 mb - 0.00 in0.0 mm 0.00 in0.0 mm
06:40 PM 31.5°F-0.3°C 26.9°F-2.8°C 83% 2.3 mph SW3.7 kmh SW 5.8 mph9.3 kmh 29.79 in1008.8 mb - 0.00 in0.0 mm 0.00 in0.0 mm
06:50 PM 31.6°F-0.2°C 27.0°F-2.8°C 83% 1.2 mph S1.9 kmh S 2.3 mph3.7 kmh 29.79 in1008.8 mb - 0.00 in0.0 mm 0.00 in0.0 mm
07:00 PM 31.8°F-0.1°C 26.9°F-2.8°C 82% 3.5 mph SW5.6 kmh SW 3.5 mph5.6 kmh 29.80 in1009.1 mb - 0.00 in0.0 mm 0.00 in0.0 mm
07:10 PM 31.9°F-0.1°C 27.3°F-2.6°C 83% 2.3 mph W3.7 kmh W 13.8 mph22.2 kmh 29.80 in1009.1 mb - 0.00 in0.0 mm 0.00 in0.0 mm
07:20 PM 31.9°F-0.1°C 27.6°F-2.4°C 84% 2.3 mph N3.7 kmh N 1.2 mph1.9 kmh 29.81 in1009.5 mb - 0.00 in0.0 mm 0.00 in0.0 mm
07:30 PM 31.9°F-0.1°C 27.9°F-2.3°C 85% 1.2 mph W1.9 kmh W 5.8 mph9.3 kmh 29.81 in1009.5 mb - 0.00 in0.0 mm 0.00 in0.0 mm
07:40 PM 31.9°F-0.1°C 27.3°F-2.6°C 83% 3.5 mph W5.6 kmh W 4.6 mph7.4 kmh 29.81 in1009.5 mb - 0.00 in0.0 mm 0.00 in0.0 mm
07:50 PM 31.9°F-0.1°C 27.9°F-2.3°C 85% 1.2 mph WSW1.9 kmh WSW 2.3 mph3.7 kmh 29.82 in1009.8 mb - 0.00 in0.0 mm 0.00 in0.0 mm
08:00 PM 31.8°F-0.1°C 27.5°F-2.5°C 84% 2.3 mph SW3.7 kmh SW 4.6 mph7.4 kmh 29.82 in1009.8 mb - 0.00 in0.0 mm 0.00 in0.0 mm
08:10 PM 31.8°F-0.1°C 27.5°F-2.5°C 84% 2.3 mph W3.7 kmh W 4.6 mph7.4 kmh 29.82 in1009.8 mb - 0.00 in0.0 mm 0.00 in0.0 mm
08:20 PM 31.7°F-0.2°C 27.7°F-2.4°C 85% 1.2 mph WNW1.9 kmh WNW 6.9 mph11.1 kmh 29.83 in1010.2 mb - 0.00 in0.0 mm 0.00 in0.0 mm
08:30 PM 31.5°F-0.3°C 27.5°F-2.5°C 85% 2.3 mph WSW3.7 kmh WSW 3.5 mph5.6 kmh 29.83 in1010.2 mb - 0.00 in0.0 mm 0.00 in0.0 mm
08:40 PM 31.5°F-0.3°C 27.8°F-2.3°C 86% 1.2 mph NNW1.9 kmh NNW 3.5 mph5.6 kmh 29.84 in1010.5 mb - 0.00 in0.0 mm 0.00 in0.0 mm
08:50 PM 31.4°F-0.3°C 27.7°F-2.4°C 86% 1.2 mph NNW1.9 kmh NNW 2.3 mph3.7 kmh 29.84 in1010.5 mb - 0.00 in0.0 mm 0.00 in0.0 mm
09:00 PM 31.1°F-0.5°C 27.7°F-2.4°C 87% 3.5 mph NW5.6 kmh NW 5.8 mph9.3 kmh 29.85 in1010.8 mb - 0.00 in0.0 mm 0.00 in0.0 mm
09:10 PM 30.7°F-0.7°C 27.8°F-2.3°C 89% 1.2 mph WNW1.9 kmh WNW 2.3 mph3.7 kmh 29.85 in1010.8 mb - 0.00 in0.0 mm 0.00 in0.0 mm
09:20 PM 30.5°F-0.8°C 27.7°F-2.4°C 89% 1.2 mph NNW1.9 kmh NNW 2.3 mph3.7 kmh 29.86 in1011.2 mb - 0.00 in0.0 mm 0.00 in0.0 mm
09:30 PM 30.3°F-0.9°C 27.2°F-2.7°C 88% 1.2 mph NNW1.9 kmh NNW 3.5 mph5.6 kmh 29.87 in1011.5 mb - 0.00 in0.0 mm 0.00 in0.0 mm
09:40 PM 30.1°F-1.1°C 27.0°F-2.8°C 88% 2.3 mph N3.7 kmh N 5.8 mph9.3 kmh 29.88 in1011.9 mb - 0.00 in0.0 mm 0.00 in0.0 mm
09:50 PM 29.9°F-1.2°C 25.9°F-3.4°C 85% 2.3 mph N3.7 kmh N 3.5 mph5.6 kmh 29.88 in1011.9 mb - 0.00 in0.0 mm 0.00 in0.0 mm
10:00 PM 29.6°F-1.3°C 25.4°F-3.7°C 84% 1.2 mph N1.9 kmh N 4.6 mph7.4 kmh 29.89 in1012.2 mb - 0.00 in0.0 mm 0.00 in0.0 mm
10:10 PM 29.3°F-1.5°C 24.8°F-4.0°C 83% 2.3 mph NNW3.7 kmh NNW 8.1 mph13.0 kmh 29.90 in1012.5 mb - 0.00 in0.0 mm 0.00 in0.0 mm
10:20 PM 29.0°F-1.7°C 24.8°F-4.0°C 84% 2.3 mph NW3.7 kmh NW 5.8 mph9.3 kmh 29.91 in1012.9 mb - 0.00 in0.0 mm 0.00 in0.0 mm
10:30 PM 28.4°F-2.0°C 23.6°F-4.7°C 82% 3.5 mph N5.6 kmh N 4.6 mph7.4 kmh 29.91 in1012.9 mb - 0.00 in0.0 mm 0.00 in0.0 mm
10:40 PM 27.9°F-2.3°C 23.1°F-4.9°C 82% 4.6 mph N7.4 kmh N 5.8 mph9.3 kmh 29.91 in1012.9 mb - 0.00 in0.0 mm 0.00 in0.0 mm
10:50 PM 27.9°F-2.3°C 22.8°F-5.1°C 81% 4.6 mph NNW7.4 kmh NNW 5.8 mph9.3 kmh 29.91 in1012.9 mb - 0.00 in0.0 mm 0.00 in0.0 mm
11:00 PM 27.9°F-2.3°C 22.8°F-5.1°C 81% 2.3 mph NNW3.7 kmh NNW 4.6 mph7.4 kmh 29.92 in1013.2 mb - 0.00 in0.0 mm 0.00 in0.0 mm
11:10 PM 27.8°F-2.3°C 22.7°F-5.2°C 81% 2.3 mph NNW3.7 kmh NNW 4.6 mph7.4 kmh 29.92 in1013.2 mb - 0.00 in0.0 mm 0.00 in0.0 mm
11:20 PM 27.8°F-2.3°C 22.7°F-5.2°C 81% 2.3 mph NNW3.7 kmh NNW 4.6 mph7.4 kmh 29.92 in1013.2 mb - 0.00 in0.0 mm 0.00 in0.0 mm
11:30 PM 27.7°F-2.4°C 22.6°F-5.2°C 81% 3.5 mph NNW5.6 kmh NNW 4.6 mph7.4 kmh 29.93 in1013.5 mb - 0.00 in0.0 mm 0.00 in0.0 mm
11:40 PM 27.7°F-2.4°C 22.3°F-5.4°C 80% 2.3 mph NW3.7 kmh NW 3.5 mph5.6 kmh 29.94 in1013.9 mb - 0.00 in0.0 mm 0.00 in0.0 mm
11:50 PM 27.6°F-2.4°C 22.5°F-5.3°C 81% 1.2 mph N1.9 kmh N 2.3 mph3.7 kmh 29.95 in1014.2 mb - 0.00 in0.0 mm 0.00 in0.0 mm